createdAt,value
2017-04-17T00:00:01.128Z,1032.87
2017-04-17T00:01:01.116Z,1032.91
2017-04-17T00:02:01.106Z,1032.9
2017-04-17T00:03:01.096Z,1032.89
2017-04-17T00:04:01.082Z,1032.88
2017-04-17T00:05:01.072Z,1032.86
2017-04-17T00:06:01.061Z,1032.87
2017-04-17T00:07:01.049Z,1032.87
2017-04-17T00:08:01.038Z,1032.84
2017-04-17T00:09:01.027Z,1032.89
2017-04-17T00:10:01.016Z,1032.87
2017-04-17T00:11:01.004Z,1032.89
2017-04-17T00:12:00.993Z,1032.92
2017-04-17T00:13:00.982Z,1032.91
2017-04-17T00:14:00.972Z,1032.9
2017-04-17T00:15:00.959Z,1032.91
2017-04-17T00:16:00.949Z,1032.9
2017-04-17T00:17:00.938Z,1032.91
2017-04-17T00:18:00.928Z,1032.9
2017-04-17T00:19:00.917Z,1032.92
2017-04-17T00:20:00.904Z,1032.91
2017-04-17T00:21:00.894Z,1032.94
2017-04-17T00:22:00.883Z,1032.89
2017-04-17T00:23:00.872Z,1032.87
2017-04-17T00:24:00.862Z,1032.88
2017-04-17T00:25:00.850Z,1032.85
2017-04-17T00:26:00.838Z,1032.82
2017-04-17T00:27:00.827Z,1032.86
2017-04-17T00:28:00.816Z,1032.85
2017-04-17T00:29:00.804Z,1032.85
2017-04-17T00:30:00.793Z,1032.9
2017-04-17T00:31:00.783Z,1032.9
2017-04-17T00:32:00.771Z,1032.86
2017-04-17T00:33:00.760Z,1032.92
2017-04-17T00:34:00.750Z,1032.89
2017-04-17T00:35:01.039Z,1032.9
2017-04-17T00:36:00.728Z,1032.85
2017-04-17T00:37:00.716Z,1032.83
2017-04-17T00:38:00.705Z,1032.81
2017-04-17T00:39:00.694Z,1032.8
2017-04-17T00:40:00.682Z,1032.79
2017-04-17T00:41:00.675Z,1032.74
2017-04-17T00:42:00.661Z,1032.69
2017-04-17T00:43:00.650Z,1032.67
2017-04-17T00:44:00.638Z,1032.69
2017-04-17T00:45:00.628Z,1032.75
2017-04-17T00:46:00.616Z,1032.75
2017-04-17T00:47:00.606Z,1032.7
2017-04-17T00:48:00.594Z,1032.68
2017-04-17T00:49:00.583Z,1032.68
2017-04-17T00:50:00.574Z,1032.67
2017-04-17T00:51:00.561Z,1032.66
2017-04-17T00:52:00.550Z,1032.64
2017-04-17T00:53:00.539Z,1032.63
2017-04-17T00:54:00.528Z,1032.61
2017-04-17T00:55:00.521Z,1032.62
2017-04-17T00:56:00.506Z,1032.61
2017-04-17T00:57:00.494Z,1032.61
2017-04-17T00:58:00.483Z,1032.64
2017-04-17T00:59:00.473Z,1032.68
2017-04-17T01:00:00.465Z,1032.73
2017-04-17T01:01:00.451Z,1032.77
2017-04-17T01:02:00.439Z,1032.81
2017-04-17T01:03:00.430Z,1032.81
2017-04-17T01:04:00.418Z,1032.89
2017-04-17T01:05:00.407Z,1032.93
2017-04-17T01:06:00.396Z,1032.94
2017-04-17T01:07:00.385Z,1033.03
2017-04-17T01:08:00.374Z,1033.07
2017-04-17T01:09:00.362Z,1033.07
2017-04-17T01:10:00.350Z,1033.11
2017-04-17T01:11:00.340Z,1033.09
2017-04-17T01:12:00.329Z,1033.17
2017-04-17T01:13:00.317Z,1033.18
2017-04-17T01:14:00.306Z,1033.17
2017-04-17T01:15:00.295Z,1033.18
2017-04-17T01:16:00.284Z,1033.25
2017-04-17T01:17:00.271Z,1033.3
2017-04-17T01:18:00.260Z,1033.3
2017-04-17T01:19:00.276Z,1033.33
2017-04-17T01:20:00.238Z,1033.36
2017-04-17T01:21:00.227Z,1033.41
2017-04-17T01:22:00.218Z,1033.45
2017-04-17T01:23:00.204Z,1033.48
2017-04-17T01:24:00.192Z,1033.48
2017-04-17T01:25:00.181Z,1033.56
2017-04-17T01:26:00.169Z,1033.56
2017-04-17T01:27:00.160Z,1033.57
2017-04-17T01:28:00.145Z,1033.58
2017-04-17T01:29:00.134Z,1033.61
2017-04-17T01:30:00.122Z,1033.64
2017-04-17T01:31:00.112Z,1033.68
2017-04-17T01:32:00.098Z,1033.7
2017-04-17T01:33:00.086Z,1033.71
2017-04-17T01:34:00.074Z,1033.73
2017-04-17T01:35:00.063Z,1033.76
2017-04-17T01:36:00.051Z,1033.8
2017-04-17T01:37:00.038Z,1033.85
2017-04-17T01:38:00.026Z,1033.84
2017-04-17T01:39:00.013Z,1033.9
2017-04-17T01:40:00.002Z,1033.87
2017-04-17T01:40:59.989Z,1033.92
2017-04-17T01:41:59.976Z,1033.93
2017-04-17T01:42:59.968Z,1033.92
2017-04-17T01:43:59.952Z,1033.94
2017-04-17T01:44:59.942Z,1033.91
2017-04-17T01:45:59.927Z,1033.87
2017-04-17T01:46:59.914Z,1033.88
2017-04-17T01:47:59.908Z,1033.9
2017-04-17T01:48:59.890Z,1033.87
2017-04-17T01:49:59.878Z,1033.86
2017-04-17T01:50:59.865Z,1033.83
2017-04-17T01:51:59.852Z,1033.83
2017-04-17T01:52:59.841Z,1033.81
2017-04-17T01:53:59.828Z,1033.81
2017-04-17T01:54:59.815Z,1033.81
2017-04-17T01:55:59.805Z,1033.84
2017-04-17T01:56:59.790Z,1033.8
2017-04-17T01:57:59.778Z,1033.82
2017-04-17T01:58:59.765Z,1033.83
2017-04-17T01:59:59.752Z,1033.82
2017-04-17T02:00:59.740Z,1033.83
2017-04-17T02:01:59.727Z,1033.86
2017-04-17T02:02:59.716Z,1033.84
2017-04-17T02:03:59.702Z,1033.83
2017-04-17T02:04:59.689Z,1033.82
2017-04-17T02:05:59.677Z,1033.83
2017-04-17T02:06:59.664Z,1033.86
2017-04-17T02:07:59.651Z,1033.82
2017-04-17T02:08:59.639Z,1033.87
2017-04-17T02:09:59.626Z,1033.89
2017-04-17T02:10:59.614Z,1033.9
2017-04-17T02:11:59.600Z,1033.85
2017-04-17T02:12:59.588Z,1033.87
2017-04-17T02:13:59.575Z,1033.88
2017-04-17T02:14:59.562Z,1033.91
2017-04-17T02:15:59.549Z,1033.92
2017-04-17T02:16:59.537Z,1033.95
2017-04-17T02:17:59.524Z,1033.92
2017-04-17T02:18:59.511Z,1033.94
2017-04-17T02:19:59.499Z,1033.93
2017-04-17T02:20:59.486Z,1033.97
2017-04-17T02:21:59.473Z,1033.95
2017-04-17T02:22:59.460Z,1033.95
2017-04-17T02:23:59.447Z,1033.95
2017-04-17T02:24:59.434Z,1033.98
2017-04-17T02:25:59.424Z,1033.94
2017-04-17T02:26:59.408Z,1033.94
2017-04-17T02:27:59.395Z,1033.92
2017-04-17T02:28:59.383Z,1033.95
2017-04-17T02:29:59.370Z,1033.89
2017-04-17T02:30:59.357Z,1033.88
2017-04-17T02:31:59.344Z,1033.92
2017-04-17T02:32:59.332Z,1033.86
2017-04-17T02:33:59.318Z,1033.81
2017-04-17T02:34:59.305Z,1033.78
2017-04-17T02:35:59.292Z,1033.73
2017-04-17T02:36:59.282Z,1033.68
2017-04-17T02:37:59.267Z,1033.66
2017-04-17T02:38:59.254Z,1033.58
2017-04-17T02:39:59.241Z,1033.58
2017-04-17T02:40:59.227Z,1033.52
2017-04-17T02:41:59.215Z,1033.53
2017-04-17T02:42:59.203Z,1033.49
2017-04-17T02:43:59.190Z,1033.46
2017-04-17T02:44:59.177Z,1033.46
2017-04-17T02:45:59.164Z,1033.5
2017-04-17T02:46:59.152Z,1033.49
2017-04-17T02:47:59.138Z,1033.51
2017-04-17T02:48:59.125Z,1033.52
2017-04-17T02:49:59.116Z,1033.53
2017-04-17T02:50:59.100Z,1033.52
2017-04-17T02:51:59.087Z,1033.53
2017-04-17T02:52:59.073Z,1033.47
2017-04-17T02:53:59.062Z,1033.47
2017-04-17T02:54:59.050Z,1033.47
2017-04-17T02:55:59.037Z,1033.48
2017-04-17T02:56:59.024Z,1033.46
2017-04-17T02:57:59.012Z,1033.42
2017-04-17T02:58:58.998Z,1033.41
2017-04-17T02:59:58.986Z,1033.43
2017-04-17T03:00:58.973Z,1033.39
2017-04-17T03:01:58.962Z,1033.37
2017-04-17T03:02:58.948Z,1033.34
2017-04-17T03:03:58.935Z,1033.33
2017-04-17T03:04:58.923Z,1033.24
2017-04-17T03:05:58.909Z,1033.22
2017-04-17T03:06:58.896Z,1033.19
2017-04-17T03:07:58.884Z,1033.09
2017-04-17T03:08:58.873Z,1033
2017-04-17T03:09:58.859Z,1033
2017-04-17T03:10:58.846Z,1032.97
2017-04-17T03:11:58.834Z,1032.92
2017-04-17T03:12:58.822Z,1032.89
2017-04-17T03:13:58.809Z,1032.89
2017-04-17T03:14:58.802Z,1032.85
2017-04-17T03:15:58.784Z,1032.82
2017-04-17T03:16:58.771Z,1032.77
2017-04-17T03:17:58.760Z,1032.76
2017-04-17T03:18:58.747Z,1032.76
2017-04-17T03:19:58.735Z,1032.72
2017-04-17T03:20:58.722Z,1032.73
2017-04-17T03:21:58.713Z,1032.69
2017-04-17T03:22:58.698Z,1032.68
2017-04-17T03:23:58.687Z,1032.7
2017-04-17T03:24:58.672Z,1032.65
2017-04-17T03:25:58.660Z,1032.66
2017-04-17T03:26:58.648Z,1032.64
2017-04-17T03:27:58.635Z,1032.6
2017-04-17T03:28:58.623Z,1032.58
2017-04-17T03:29:58.611Z,1032.62
2017-04-17T03:30:58.599Z,1032.63
2017-04-17T03:31:58.587Z,1032.62
2017-04-17T03:32:58.575Z,1032.64
2017-04-17T03:33:58.562Z,1032.61
2017-04-17T03:34:58.551Z,1032.57
2017-04-17T03:35:58.538Z,1032.56
2017-04-17T03:36:58.528Z,1032.58
2017-04-17T03:37:58.514Z,1032.59
2017-04-17T03:38:58.502Z,1032.57
2017-04-17T03:39:58.489Z,1032.56
2017-04-17T03:40:58.478Z,1032.61
2017-04-17T03:41:58.466Z,1032.53
2017-04-17T03:42:58.453Z,1032.44
2017-04-17T03:43:58.442Z,1032.43
2017-04-17T03:44:58.430Z,1032.42
2017-04-17T03:45:58.418Z,1032.43
2017-04-17T03:46:58.405Z,1032.43
2017-04-17T03:47:58.394Z,1032.39
2017-04-17T03:48:58.383Z,1032.44
2017-04-17T03:49:58.370Z,1032.43
2017-04-17T03:50:58.358Z,1032.38
2017-04-17T03:51:58.346Z,1032.38
2017-04-17T03:52:58.335Z,1032.4
2017-04-17T03:53:58.322Z,1032.37
2017-04-17T03:54:58.310Z,1032.4
2017-04-17T03:55:58.297Z,1032.36
2017-04-17T03:56:58.287Z,1032.35
2017-04-17T03:57:58.274Z,1032.36
2017-04-17T03:58:58.262Z,1032.3
2017-04-17T03:59:58.250Z,1032.33
2017-04-17T04:00:58.238Z,1032.27
2017-04-17T04:01:58.226Z,1032.29
2017-04-17T04:02:58.215Z,1032.28
2017-04-17T04:03:58.204Z,1032.24
2017-04-17T04:04:58.190Z,1032.22
2017-04-17T04:05:58.181Z,1032.23
2017-04-17T04:06:58.168Z,1032.2
2017-04-17T04:07:58.159Z,1032.17
2017-04-17T04:08:58.144Z,1032.13
2017-04-17T04:09:58.131Z,1032.17
2017-04-17T04:10:58.120Z,1032.12
2017-04-17T04:11:58.107Z,1032.13
2017-04-17T04:12:58.097Z,1032.07
2017-04-17T04:13:58.084Z,1032.06
2017-04-17T04:14:58.073Z,1032.09
2017-04-17T04:15:58.061Z,1032.07
2017-04-17T04:16:58.049Z,1032.07
2017-04-17T04:17:58.037Z,1032.06
2017-04-17T04:18:58.026Z,1032.04
2017-04-17T04:19:58.014Z,1032.04
2017-04-17T04:20:58.003Z,1032
2017-04-17T04:21:57.991Z,1031.98
2017-04-17T04:22:57.979Z,1031.98
2017-04-17T04:23:57.967Z,1031.96
2017-04-17T04:24:57.955Z,1031.94
2017-04-17T04:25:57.945Z,1031.91
2017-04-17T04:26:57.932Z,1031.89
2017-04-17T04:27:57.921Z,1031.89
2017-04-17T04:28:57.909Z,1031.83
2017-04-17T04:29:57.901Z,1031.79
2017-04-17T04:30:57.887Z,1031.78
2017-04-17T04:31:57.876Z,1031.76
2017-04-17T04:32:57.865Z,1031.76
2017-04-17T04:33:57.853Z,1031.76
2017-04-17T04:34:57.842Z,1031.79
2017-04-17T04:35:57.830Z,1031.84
2017-04-17T04:36:57.820Z,1031.83
2017-04-17T04:37:57.807Z,1031.86
2017-04-17T04:38:57.797Z,1031.84
2017-04-17T04:39:57.784Z,1031.85
2017-04-17T04:40:57.773Z,1031.83
2017-04-17T04:41:57.762Z,1031.79
2017-04-17T04:42:57.752Z,1031.83
2017-04-17T04:43:57.740Z,1031.76
2017-04-17T04:44:57.729Z,1031.73
2017-04-17T04:45:57.717Z,1031.7
2017-04-17T04:46:57.707Z,1031.67
2017-04-17T04:47:57.695Z,1031.59
2017-04-17T04:48:57.684Z,1031.58
2017-04-17T04:49:57.673Z,1031.57
2017-04-17T04:50:57.662Z,1031.49
2017-04-17T04:51:57.673Z,1031.48
2017-04-17T04:52:57.640Z,1031.42
2017-04-17T04:53:57.628Z,1031.42
2017-04-17T04:54:57.617Z,1031.39
2017-04-17T04:55:57.606Z,1031.35
2017-04-17T04:56:57.595Z,1031.37
2017-04-17T04:57:57.584Z,1031.32
2017-04-17T04:58:57.573Z,1031.28
2017-04-17T04:59:57.562Z,1031.31
2017-04-17T05:00:57.552Z,1031.26
2017-04-17T05:01:57.541Z,1031.32
2017-04-17T05:02:57.531Z,1031.34
2017-04-17T05:03:57.519Z,1031.37
2017-04-17T05:04:57.508Z,1031.39
2017-04-17T05:05:57.497Z,1031.39
2017-04-17T05:06:57.486Z,1031.39
2017-04-17T05:07:57.475Z,1031.3
2017-04-17T05:08:57.465Z,1031.24
2017-04-17T05:09:57.454Z,1031.25
2017-04-17T05:10:57.443Z,1031.17
2017-04-17T05:11:57.433Z,1031.12
2017-04-17T05:12:57.422Z,1031.05
2017-04-17T05:13:57.411Z,1030.97
2017-04-17T05:14:57.401Z,1030.92
2017-04-17T05:15:57.390Z,1030.91
2017-04-17T05:16:57.380Z,1030.87
2017-04-17T05:17:57.369Z,1030.88
2017-04-17T05:18:57.359Z,1030.9
2017-04-17T05:19:57.349Z,1030.9
2017-04-17T05:20:57.340Z,1030.83
2017-04-17T05:21:57.327Z,1030.86
2017-04-17T05:22:57.318Z,1030.71
2017-04-17T05:23:57.308Z,1030.7
2017-04-17T05:24:57.297Z,1030.7
2017-04-17T05:25:57.287Z,1030.66
2017-04-17T05:26:57.277Z,1030.65
2017-04-17T05:27:57.267Z,1030.61
2017-04-17T05:28:57.256Z,1030.55
2017-04-17T05:29:57.246Z,1030.55
2017-04-17T05:30:57.237Z,1030.54
2017-04-17T05:31:57.227Z,1030.51
2017-04-17T05:32:57.216Z,1030.56
2017-04-17T05:33:57.206Z,1030.53
2017-04-17T05:34:57.196Z,1030.54
2017-04-17T05:35:57.186Z,1030.52
2017-04-17T05:36:57.176Z,1030.57
2017-04-17T05:37:57.166Z,1030.56
2017-04-17T05:38:57.157Z,1030.57
2017-04-17T05:39:57.147Z,1030.5
2017-04-17T05:40:57.136Z,1030.47
2017-04-17T05:41:57.127Z,1030.49
2017-04-17T05:42:57.118Z,1030.48
2017-04-17T05:43:57.107Z,1030.38
2017-04-17T05:44:57.098Z,1030.27
2017-04-17T05:45:57.092Z,1030.16
2017-04-17T05:46:57.077Z,1030.2
2017-04-17T05:47:57.068Z,1030.15
2017-04-17T05:48:57.059Z,1030.15
2017-04-17T05:49:57.049Z,1030.27
2017-04-17T05:50:57.039Z,1030.2
2017-04-17T05:51:57.030Z,1030.2
2017-04-17T05:52:57.020Z,1030.17
2017-04-17T05:53:57.011Z,1030.14
2017-04-17T05:54:57.001Z,1030.19
2017-04-17T05:55:56.992Z,1030.29
2017-04-17T05:56:56.982Z,1030.13
2017-04-17T05:57:56.972Z,1030.07
2017-04-17T05:58:56.964Z,1030.13
2017-04-17T05:59:56.954Z,1029.93
2017-04-17T06:00:56.945Z,1029.87
2017-04-17T06:01:56.934Z,1029.95
2017-04-17T06:02:56.926Z,1029.84
2017-04-17T06:03:56.916Z,1029.8
2017-04-17T06:04:56.907Z,1029.88
2017-04-17T06:05:56.899Z,1029.84
2017-04-17T06:06:56.890Z,1029.86
2017-04-17T06:07:56.881Z,1029.89
2017-04-17T06:08:56.871Z,1030.02
2017-04-17T06:09:56.862Z,1030.04
2017-04-17T06:10:56.854Z,1030.11
2017-04-17T06:11:56.844Z,1030.08
2017-04-17T06:12:56.835Z,1030.08
2017-04-17T06:13:56.826Z,1030.18
2017-04-17T06:14:56.817Z,1030.08
2017-04-17T06:15:56.808Z,1030
2017-04-17T06:16:56.799Z,1029.96
2017-04-17T06:17:56.792Z,1029.83
2017-04-17T06:18:56.781Z,1029.86
2017-04-17T06:19:56.771Z,1029.88
2017-04-17T06:20:56.762Z,1029.74
2017-04-17T06:21:56.754Z,1029.7
2017-04-17T06:22:56.745Z,1029.67
2017-04-17T06:23:56.736Z,1029.72
2017-04-17T06:24:56.727Z,1029.76
2017-04-17T06:25:56.718Z,1029.71
2017-04-17T06:26:56.710Z,1029.68
2017-04-17T06:27:56.701Z,1029.67
2017-04-17T06:28:56.692Z,1029.57
2017-04-17T06:29:56.683Z,1029.43
2017-04-17T06:30:56.675Z,1029.39
2017-04-17T06:31:56.666Z,1029.53
2017-04-17T06:32:56.657Z,1029.65
2017-04-17T06:33:56.649Z,1029.52
2017-04-17T06:34:56.640Z,1029.52
2017-04-17T06:35:56.631Z,1029.5
2017-04-17T06:36:56.623Z,1029.54
2017-04-17T06:37:56.614Z,1029.51
2017-04-17T06:38:56.605Z,1029.27
2017-04-17T06:39:56.597Z,1029.26
2017-04-17T06:40:56.590Z,1029.1
2017-04-17T06:41:56.581Z,1029.09
2017-04-17T06:42:56.572Z,1029.11
2017-04-17T06:43:56.564Z,1028.96
2017-04-17T06:44:56.556Z,1028.18
2017-04-17T06:45:56.547Z,1027.45
2017-04-17T06:46:56.540Z,1027.6
2017-04-17T06:47:56.533Z,1027.54
2017-04-17T06:48:56.524Z,1027.67
2017-04-17T06:49:56.517Z,1027.71
2017-04-17T06:50:56.510Z,1027.62
2017-04-17T06:51:56.503Z,1025.98
2017-04-17T06:52:56.495Z,1026.18
2017-04-17T06:53:56.488Z,1026.64
2017-04-17T06:54:56.482Z,1026.46
2017-04-17T06:55:56.477Z,1025.72
2017-04-17T06:56:56.470Z,1026.08
2017-04-17T06:57:56.464Z,1026.32
2017-04-17T06:58:56.460Z,1026.53
2017-04-17T06:59:56.452Z,1027.02
2017-04-17T07:00:56.447Z,1026.21
2017-04-17T07:01:56.442Z,1025.51
2017-04-17T07:02:56.437Z,1025.87
2017-04-17T07:03:56.431Z,1025.25
2017-04-17T07:04:56.427Z,1025.54
2017-04-17T07:05:56.422Z,1025.85
2017-04-17T07:06:56.718Z,1026.25
2017-04-17T07:07:56.412Z,1026.61
2017-04-17T07:08:56.408Z,1026.6
2017-04-17T07:09:56.403Z,1025.2
2017-04-17T07:10:56.398Z,1024.24
2017-04-17T07:11:56.394Z,1023.45
2017-04-17T07:12:56.391Z,1022.47
2017-04-17T07:13:56.388Z,1021.71
2017-04-17T07:14:56.385Z,1022.64
2017-04-17T07:15:56.383Z,1023.59
2017-04-17T07:16:56.379Z,1024.75
2017-04-17T07:17:56.378Z,1023.53
2017-04-17T07:18:56.375Z,1023.94
2017-04-17T07:19:56.373Z,1023.19
2017-04-17T07:20:56.371Z,1022.73
2017-04-17T07:21:56.369Z,1022.24
2017-04-17T07:22:56.368Z,1021.82
2017-04-17T07:23:56.368Z,1021.66
2017-04-17T07:24:56.367Z,1021.24
2017-04-17T07:25:56.367Z,1021.06
2017-04-17T07:26:56.368Z,1021.03
2017-04-17T07:27:56.370Z,1020.62
2017-04-17T07:28:56.372Z,1021.44
2017-04-17T07:29:56.373Z,1022.32
2017-04-17T07:30:56.375Z,1023.08
2017-04-17T07:31:56.378Z,1023.63
2017-04-17T07:32:56.379Z,1022.86
2017-04-17T07:33:56.381Z,1022.14
2017-04-17T07:34:56.384Z,1021.44
2017-04-17T07:35:56.387Z,1021.07
2017-04-17T07:36:56.389Z,1021.55
2017-04-17T07:37:56.393Z,1021.53
2017-04-17T07:38:56.397Z,1020.37
2017-04-17T07:39:56.401Z,1021
2017-04-17T07:40:56.405Z,1021.95
2017-04-17T07:41:56.409Z,1022.79
2017-04-17T07:42:56.414Z,1023.4
2017-04-17T07:43:56.416Z,1022.59
2017-04-17T07:44:56.421Z,1021.45
2017-04-17T07:45:56.425Z,1020.68
2017-04-17T07:46:56.429Z,1019.88
2017-04-17T07:47:56.434Z,1019.34
2017-04-17T07:48:56.439Z,1018.97
2017-04-17T07:49:56.444Z,1018.71
2017-04-17T07:50:56.450Z,1019.2
2017-04-17T07:51:56.456Z,1018.7
2017-04-17T07:52:56.464Z,1018.1
2017-04-17T07:53:56.470Z,1019.66
2017-04-17T07:54:56.476Z,1021.2
2017-04-17T07:55:56.484Z,1020.9
2017-04-17T07:56:56.490Z,1020.57
2017-04-17T07:57:56.497Z,1021.5
2017-04-17T07:58:56.504Z,1022.28
2017-04-17T07:59:56.510Z,1022.29
2017-04-17T08:00:56.515Z,1022.86
2017-04-17T08:01:56.521Z,1023.69
2017-04-17T08:02:56.526Z,1022.91
2017-04-17T08:03:56.532Z,1022.15
2017-04-17T08:04:56.537Z,1021.52
2017-04-17T08:05:56.542Z,1021.09
2017-04-17T08:06:56.546Z,1020.69
2017-04-17T08:07:56.553Z,1020.37
2017-04-17T08:08:56.559Z,1020.76
2017-04-17T08:09:56.564Z,1021.46
2017-04-17T08:10:56.568Z,1022.16
2017-04-17T08:11:56.576Z,1022.89
2017-04-17T08:12:56.579Z,1023.54
2017-04-17T08:13:56.585Z,1024.16
2017-04-17T08:14:56.589Z,1024.67
2017-04-17T08:15:56.593Z,1025.15
2017-04-17T08:16:56.597Z,1025.52
2017-04-17T08:17:56.600Z,1025.81
2017-04-17T08:18:56.603Z,1026.06
2017-04-17T08:19:56.605Z,1026.22
2017-04-17T08:20:56.607Z,1026.28
2017-04-17T08:21:56.609Z,1026.4
2017-04-17T08:22:56.611Z,1026.49
2017-04-17T08:23:56.610Z,1026.61
2017-04-17T08:24:56.611Z,1026.77
2017-04-17T08:25:56.612Z,1026.28
2017-04-17T08:26:56.612Z,1026.05
2017-04-17T08:27:56.611Z,1026.11
2017-04-17T08:28:56.611Z,1026.08
2017-04-17T08:29:56.611Z,1026.07
2017-04-17T08:30:56.611Z,1026.06
2017-04-17T08:31:56.610Z,1026.06
2017-04-17T08:32:56.610Z,1025.99
2017-04-17T08:33:56.610Z,1025.94
2017-04-17T08:34:56.608Z,1025.86
2017-04-17T08:35:56.608Z,1025.78
2017-04-17T08:36:56.607Z,1025.91
2017-04-17T08:37:56.607Z,1026.18
2017-04-17T08:38:56.605Z,1026.51
2017-04-17T08:39:56.604Z,1026.8
2017-04-17T08:40:56.603Z,1027.09
2017-04-17T08:41:56.602Z,1027.3
2017-04-17T08:42:56.599Z,1027.53
2017-04-17T08:43:56.598Z,1027.73
2017-04-17T08:44:56.596Z,1027.88
2017-04-17T08:45:56.593Z,1028.05
2017-04-17T08:46:56.591Z,1028.14
2017-04-17T08:47:56.589Z,1028.25
2017-04-17T08:48:56.586Z,1028.31
2017-04-17T08:49:56.582Z,1028.48
2017-04-17T08:50:56.580Z,1028.53
2017-04-17T08:51:56.577Z,1028.52
2017-04-17T08:52:56.574Z,1028.51
2017-04-17T08:53:56.571Z,1028.51
2017-04-17T08:54:56.568Z,1028.46
2017-04-17T08:55:56.565Z,1028.48
2017-04-17T08:56:56.560Z,1028.48
2017-04-17T08:57:56.555Z,1028.45
2017-04-17T08:58:56.551Z,1028.39
2017-04-17T08:59:56.548Z,1028.33
2017-04-17T09:00:56.543Z,1028.21
2017-04-17T09:01:56.539Z,1028.01
2017-04-17T09:02:56.535Z,1027.79
2017-04-17T09:03:56.532Z,1027.52
2017-04-17T09:04:56.527Z,1027.27
2017-04-17T09:05:56.523Z,1027.11
2017-04-17T09:06:56.519Z,1026.85
2017-04-17T09:07:56.540Z,1026.67
2017-04-17T09:08:56.511Z,1026.52
2017-04-17T09:09:56.507Z,1026.46
2017-04-17T09:10:56.503Z,1026.42
2017-04-17T09:11:56.499Z,1026.42
2017-04-17T09:12:56.501Z,1026.45
2017-04-17T09:13:56.493Z,1026.49
2017-04-17T09:14:56.489Z,1026.53
2017-04-17T09:15:56.486Z,1026.47
2017-04-17T09:16:56.484Z,1026.36
2017-04-17T09:17:56.480Z,1026.23
2017-04-17T09:18:56.476Z,1026.08
2017-04-17T09:19:56.473Z,1025.89
2017-04-17T09:20:56.470Z,1025.87
2017-04-17T09:21:56.467Z,1025.77
2017-04-17T09:22:56.463Z,1025.7
2017-04-17T09:23:56.461Z,1025.63
2017-04-17T09:24:56.458Z,1025.63
2017-04-17T09:25:56.454Z,1025.59
2017-04-17T09:26:56.451Z,1025.63
2017-04-17T09:27:56.449Z,1025.77
2017-04-17T09:28:56.448Z,1025.91
2017-04-17T09:29:56.443Z,1026.1
2017-04-17T09:30:56.441Z,1026.18
2017-04-17T09:31:56.438Z,1026.34
2017-04-17T09:32:56.438Z,1026.38
2017-04-17T09:33:56.432Z,1026.41
2017-04-17T09:34:56.429Z,1026.54
2017-04-17T09:35:56.427Z,1026.64
2017-04-17T09:36:56.674Z,1026.8
2017-04-17T09:37:56.421Z,1027.03
2017-04-17T09:38:56.418Z,1027.31
2017-04-17T09:39:56.417Z,1027.73
2017-04-17T09:40:56.412Z,1028
2017-04-17T09:41:56.409Z,1028.26
2017-04-17T09:42:56.407Z,1028.5
2017-04-17T09:43:56.403Z,1028.71
2017-04-17T09:44:56.398Z,1028.95
2017-04-17T09:45:56.395Z,1029.16
2017-04-17T09:46:56.391Z,1029.26
2017-04-17T09:47:56.387Z,1029.41
2017-04-17T09:48:56.383Z,1029.58
2017-04-17T09:49:56.378Z,1029.68
2017-04-17T09:50:56.374Z,1029.8
2017-04-17T09:51:56.374Z,1029.89
2017-04-17T09:52:56.364Z,1030.07
2017-04-17T09:53:56.360Z,1030.18
2017-04-17T09:54:56.355Z,1030.29
2017-04-17T09:55:56.349Z,1030.52
2017-04-17T09:56:56.344Z,1030.66
2017-04-17T09:57:56.339Z,1030.77
2017-04-17T09:58:56.333Z,1030.94
2017-04-17T09:59:56.329Z,1031.06
2017-04-17T10:00:56.323Z,1031.04
2017-04-17T10:01:56.316Z,1030.97
2017-04-17T10:02:56.309Z,1030.87
2017-04-17T10:03:56.304Z,1030.77
2017-04-17T10:04:56.298Z,1030.65
2017-04-17T10:05:56.292Z,1030.56
2017-04-17T10:06:56.284Z,1030.51
2017-04-17T10:07:56.278Z,1030.38
2017-04-17T10:08:56.271Z,1030.31
2017-04-17T10:09:56.264Z,1030.25
2017-04-17T10:10:56.257Z,1030.16
2017-04-17T10:11:56.251Z,1030.1
2017-04-17T10:12:56.245Z,1030.05
2017-04-17T10:13:56.237Z,1029.94
2017-04-17T10:14:56.238Z,1029.87
2017-04-17T10:15:56.224Z,1029.85
2017-04-17T10:16:56.218Z,1029.77
2017-04-17T10:17:56.212Z,1029.68
2017-04-17T10:18:56.206Z,1029.68
2017-04-17T10:19:56.199Z,1029.64
2017-04-17T10:20:56.192Z,1029.63
2017-04-17T10:21:56.185Z,1029.6
2017-04-17T10:22:56.179Z,1029.56
2017-04-17T10:23:56.173Z,1029.49
2017-04-17T10:24:56.166Z,1029.39
2017-04-17T10:25:56.161Z,1029.26
2017-04-17T10:26:56.154Z,1029.09
2017-04-17T10:27:56.149Z,1028.77
2017-04-17T10:28:56.142Z,1028.58
2017-04-17T10:29:56.137Z,1028.34
2017-04-17T10:30:56.130Z,1028.05
2017-04-17T10:31:56.124Z,1027.76
2017-04-17T10:32:56.119Z,1027.58
2017-04-17T10:33:56.114Z,1027.53
2017-04-17T10:34:56.108Z,1027.34
2017-04-17T10:35:56.102Z,1027.34
2017-04-17T10:36:56.098Z,1027.74
2017-04-17T10:37:56.093Z,1028.11
2017-04-17T10:38:56.090Z,1028.44
2017-04-17T10:39:56.083Z,1028.65
2017-04-17T10:40:56.078Z,1028.76
2017-04-17T10:41:56.073Z,1028.77
2017-04-17T10:42:56.068Z,1028.71
2017-04-17T10:43:56.064Z,1028.7
2017-04-17T10:44:56.058Z,1028.65
2017-04-17T10:45:56.054Z,1028.66
2017-04-17T10:46:56.049Z,1028.63
2017-04-17T10:47:56.044Z,1028.56
2017-04-17T10:48:56.039Z,1028.56
2017-04-17T10:49:56.034Z,1028.54
2017-04-17T10:50:56.028Z,1028.4
2017-04-17T10:51:56.023Z,1028.31
2017-04-17T10:52:56.020Z,1028.29
2017-04-17T10:53:56.013Z,1028.24
2017-04-17T10:54:56.012Z,1028.2
2017-04-17T10:55:56.003Z,1028.21
2017-04-17T10:56:55.998Z,1028.2
2017-04-17T10:57:55.995Z,1028.17
2017-04-17T10:58:55.987Z,1028.16
2017-04-17T10:59:55.982Z,1028.13
2017-04-17T11:00:55.976Z,1028.1
2017-04-17T11:01:55.972Z,1028.1
2017-04-17T11:02:55.967Z,1028.12
2017-04-17T11:03:55.962Z,1028.16
2017-04-17T11:04:55.956Z,1028.16
2017-04-17T11:05:55.952Z,1028.23
2017-04-17T11:06:55.948Z,1028.24
2017-04-17T11:07:55.941Z,1028.29
2017-04-17T11:08:55.935Z,1028.29
2017-04-17T11:09:55.930Z,1028.37
2017-04-17T11:10:55.924Z,1028.38
2017-04-17T11:11:55.918Z,1028.39
2017-04-17T11:12:55.913Z,1028.4
2017-04-17T11:13:55.908Z,1028.38
2017-04-17T11:14:55.903Z,1028.38
2017-04-17T11:15:55.897Z,1028.39
2017-04-17T11:16:55.892Z,1028.38
2017-04-17T11:17:55.887Z,1028.35
2017-04-17T11:18:55.881Z,1028.37
2017-04-17T11:19:55.875Z,1028.38
2017-04-17T11:20:55.870Z,1028.46
2017-04-17T11:21:55.865Z,1028.5
2017-04-17T11:22:55.859Z,1028.6
2017-04-17T11:23:55.853Z,1028.63
2017-04-17T11:24:55.848Z,1028.67
2017-04-17T11:25:55.842Z,1028.67
2017-04-17T11:26:55.838Z,1028.66
2017-04-17T11:27:55.831Z,1028.61
2017-04-17T11:28:55.825Z,1028.6
2017-04-17T11:29:55.819Z,1028.64
2017-04-17T11:30:55.813Z,1028.7
2017-04-17T11:31:55.808Z,1028.67
2017-04-17T11:32:55.801Z,1028.68
2017-04-17T11:33:55.795Z,1028.73
2017-04-17T11:34:55.790Z,1028.68
2017-04-17T11:35:55.785Z,1028.69
2017-04-17T11:36:55.778Z,1028.53
2017-04-17T11:37:55.772Z,1028.45
2017-04-17T11:38:55.766Z,1028.36
2017-04-17T11:39:55.760Z,1028.29
2017-04-17T11:40:55.754Z,1028.22
2017-04-17T11:41:55.748Z,1028.21
2017-04-17T11:42:55.742Z,1028.13
2017-04-17T11:43:55.736Z,1028.03
2017-04-17T11:44:55.731Z,1027.99
2017-04-17T11:45:55.724Z,1027.88
2017-04-17T11:46:55.720Z,1027.84
2017-04-17T11:47:55.713Z,1027.81
2017-04-17T11:48:55.706Z,1027.82
2017-04-17T11:49:55.700Z,1027.87
2017-04-17T11:50:55.695Z,1027.98
2017-04-17T11:51:55.695Z,1028.02
2017-04-17T11:52:55.683Z,1028.21
2017-04-17T11:53:55.678Z,1028.35
2017-04-17T11:54:55.673Z,1028.51
2017-04-17T11:55:55.666Z,1028.88
2017-04-17T11:56:55.660Z,1029.31
2017-04-17T11:57:55.655Z,1029.82
2017-04-17T11:58:55.650Z,1030.26
2017-04-17T11:59:55.642Z,1030.55
2017-04-17T12:00:55.637Z,1030.82
2017-04-17T12:01:55.630Z,1030.99
2017-04-17T12:02:55.624Z,1031.2
2017-04-17T12:03:55.617Z,1031.29
2017-04-17T12:04:55.611Z,1031.32
2017-04-17T12:05:55.604Z,1031.44
2017-04-17T12:06:55.596Z,1031.61
2017-04-17T12:07:55.589Z,1031.74